Tacoma Park, South Dakota
Current Conditions -  °F | °C
As of 10:53 PM on Sunday 19 Oct 2014 (Local Time) from KABR Reporting Station
Clear Clear  
Wind Chill:   Ceiling: Unl
Heat Index:   Visibility: 10mi
Dew Point:   Wind: 7mph
Humidity: 71%   Direction: 330°NNW
Pressure: 29.99"   Gusts: NA
Location:  45.6832°N, 98.2967°W
Report Text: KABR 200353Z AUTO 33006KT 10SM CLR 08/03 A2999 RMK AO2 SLP160 T00780028
Loading
Personal Weather Stations






























Interactive Weather Map
Tropical Storm Tracking
New forecast layout! Learn more

10-Day Weather Forecast

Advertisements
Track Severe Weather on mobile